createdAt,value
2023-02-05T00:00:54.282Z,0
2023-02-05T00:01:34.887Z,0
2023-02-05T00:02:16.133Z,0
2023-02-05T00:02:56.599Z,0
2023-02-05T00:03:37.168Z,0
2023-02-05T00:04:17.660Z,0
2023-02-05T00:04:58.235Z,0
2023-02-05T00:05:38.778Z,0
2023-02-05T00:10:35.066Z,0
2023-02-05T00:11:15.623Z,0
2023-02-05T00:11:56.129Z,0
2023-02-05T00:12:36.656Z,0
2023-02-05T00:15:19.575Z,0
2023-02-05T00:16:00.097Z,0
2023-02-05T00:16:40.656Z,0
2023-02-05T00:17:21.145Z,0
2023-02-05T00:18:01.683Z,0
2023-02-05T00:18:42.221Z,0
2023-02-05T00:19:22.738Z,0
2023-02-05T00:20:03.274Z,0
2023-02-05T00:20:43.786Z,0
2023-02-05T00:21:24.332Z,0
2023-02-05T00:26:59.758Z,0
2023-02-05T00:27:40.295Z,0
2023-02-05T00:28:20.793Z,0
2023-02-05T00:29:01.371Z,0
2023-02-05T00:33:04.610Z,0
2023-02-05T00:33:45.149Z,0
2023-02-05T00:34:25.684Z,0
2023-02-05T00:35:06.206Z,0
2023-02-05T00:35:46.744Z,0
2023-02-05T00:36:27.265Z,0
2023-02-05T00:37:07.776Z,0
2023-02-05T00:37:48.322Z,0
2023-02-05T00:38:28.868Z,0
2023-02-05T00:39:09.362Z,0
2023-02-05T00:45:14.588Z,0
2023-02-05T00:45:55.147Z,0
2023-02-05T00:46:35.672Z,0
2023-02-05T00:47:16.937Z,0
2023-02-05T00:50:00.344Z,0
2023-02-05T00:50:43.557Z,0
2023-02-05T00:51:24.028Z,0
2023-02-05T00:52:04.663Z,0
2023-02-05T00:54:18.152Z,0
2023-02-05T00:54:58.663Z,0
2023-02-05T00:55:39.216Z,0
2023-02-05T00:56:19.803Z,0
2023-02-05T01:00:22.968Z,0
2023-02-05T01:01:03.582Z,0
2023-02-05T01:01:44.048Z,0
2023-02-05T01:02:24.590Z,0
2023-02-05T01:03:05.069Z,0
2023-02-05T01:03:45.619Z,0
2023-02-05T01:04:26.186Z,0
2023-02-05T01:05:06.734Z,0
2023-02-05T01:05:47.276Z,0
2023-02-05T01:06:27.815Z,0
2023-02-05T01:13:13.295Z,0
2023-02-05T01:13:53.826Z,0
2023-02-05T01:14:34.374Z,0
2023-02-05T01:15:14.930Z,0
2023-02-05T01:15:55.609Z,0
2023-02-05T01:16:36.866Z,0
2023-02-05T01:17:17.424Z,0
2023-02-05T01:22:03.006Z,0
2023-02-05T01:22:43.511Z,0
2023-02-05T01:23:24.045Z,0
2023-02-05T01:24:04.617Z,0
2023-02-05T01:24:45.165Z,0
2023-02-05T01:25:26.734Z,0
2023-02-05T01:26:07.275Z,0
2023-02-05T01:26:47.817Z,0
2023-02-05T01:33:33.221Z,0
2023-02-05T01:34:13.749Z,0
2023-02-05T01:34:54.282Z,0
2023-02-05T01:35:35.122Z,0
2023-02-05T01:36:15.328Z,0
2023-02-05T01:36:55.854Z,0
2023-02-05T01:37:36.379Z,0
2023-02-05T01:38:16.898Z,0
2023-02-05T01:38:58.253Z,0
2023-02-05T01:45:02.994Z,0
2023-02-05T01:45:43.515Z,0
2023-02-05T01:46:24.717Z,0
2023-02-05T01:48:40.373Z,0
2023-02-05T01:49:21.043Z,0
2023-02-05T01:50:05.327Z,0
2023-02-05T01:52:45.015Z,0
2023-02-05T01:53:25.544Z,0
2023-02-05T01:54:06.053Z,0
2023-02-05T01:54:46.577Z,0
2023-02-05T01:57:05.321Z,0
2023-02-05T01:57:48.257Z,0
2023-02-05T01:58:28.766Z,0
2023-02-05T01:59:09.893Z,0
2023-02-05T02:01:42.914Z,0
2023-02-05T02:02:27.024Z,0
2023-02-05T02:03:11.475Z,0
2023-02-05T02:03:55.349Z,0
2023-02-05T02:06:26.501Z,0
2023-02-05T02:07:09.756Z,0
2023-02-05T02:07:48.631Z,0
2023-02-05T02:08:31.515Z,0
2023-02-05T02:10:46.854Z,0
2023-02-05T02:11:28.149Z,0
2023-02-05T02:12:08.811Z,0
2023-02-05T02:12:49.428Z,0
2023-02-05T02:15:04.436Z,0
2023-02-05T02:15:45.047Z,0
2023-02-05T02:16:25.640Z,0
2023-02-05T02:17:06.124Z,0
2023-02-05T02:20:17.582Z,0
2023-02-05T02:21:00.518Z,0
2023-02-05T02:21:41.001Z,0
2023-02-05T02:25:25.910Z,0
2023-02-05T02:26:06.427Z,0
2023-02-05T02:26:47.120Z,0
2023-02-05T02:27:27.566Z,0
2023-02-05T02:29:41.663Z,0
2023-02-05T02:30:22.302Z,0
2023-02-05T02:31:02.898Z,0
2023-02-05T02:31:43.987Z,0
2023-02-05T02:34:02.293Z,0
2023-02-05T02:34:42.822Z,0
2023-02-05T02:35:23.306Z,0
2023-02-05T02:36:03.849Z,0
2023-02-05T02:38:16.702Z,0
2023-02-05T02:38:58.981Z,0
2023-02-05T02:39:39.581Z,0
2023-02-05T02:40:20.088Z,0
2023-02-05T02:42:38.229Z,0
2023-02-05T02:43:18.745Z,0
2023-02-05T02:43:59.309Z,0
2023-02-05T02:44:39.797Z,0
2023-02-05T02:50:15.754Z,0
2023-02-05T02:50:57.139Z,0
2023-02-05T02:51:37.680Z,0
2023-02-05T02:52:18.235Z,0
2023-02-05T02:55:00.442Z,0
2023-02-05T02:55:43.510Z,0
2023-02-05T02:56:22.368Z,0
2023-02-05T02:57:02.873Z,0
2023-02-05T02:57:43.465Z,0
2023-02-05T02:58:24.944Z,0
2023-02-05T03:05:10.353Z,0
2023-02-05T03:05:50.923Z,0
2023-02-05T03:08:29.390Z,0
2023-02-05T03:09:09.932Z,0
2023-02-05T03:09:50.472Z,0
2023-02-05T03:10:31.027Z,0
2023-02-05T03:14:34.178Z,0
2023-02-05T03:15:14.730Z,0
2023-02-05T03:15:55.356Z,0
2023-02-05T03:16:35.779Z,0
2023-02-05T03:17:16.379Z,0
2023-02-05T03:17:56.891Z,0
2023-02-05T03:18:37.449Z,0
2023-02-05T03:19:18.250Z,0
2023-02-05T03:19:58.792Z,0
2023-02-05T03:26:44.192Z,0
2023-02-05T03:27:24.712Z,0
2023-02-05T03:28:05.291Z,0
2023-02-05T03:28:45.789Z,0
2023-02-05T03:29:27.113Z,0
2023-02-05T03:30:07.678Z,0
2023-02-05T03:32:46.868Z,0
2023-02-05T03:33:27.383Z,0
2023-02-05T03:34:07.912Z,0
2023-02-05T03:34:49.201Z,0
2023-02-05T03:36:12.113Z,0
2023-02-05T03:36:53.245Z,0
2023-02-05T03:39:07.391Z,0
2023-02-05T03:39:49.406Z,0
2023-02-05T03:40:30.052Z,0
2023-02-05T03:41:10.702Z,0
2023-02-05T03:42:35.725Z,0
2023-02-05T03:45:31.407Z,0
2023-02-05T03:46:11.854Z,0
2023-02-05T03:46:53.092Z,0
2023-02-05T03:47:33.603Z,0
2023-02-05T03:49:48.260Z,0
2023-02-05T03:50:31.785Z,0
2023-02-05T03:51:13.325Z,0
2023-02-05T03:51:53.845Z,0
2023-02-05T03:54:22.371Z,0
2023-02-05T03:55:02.868Z,0
2023-02-05T03:55:43.505Z,0
2023-02-05T03:56:25.805Z,0
2023-02-05T03:58:58.995Z,0
2023-02-05T03:59:39.493Z,0
2023-02-05T04:00:20.044Z,0
2023-02-05T04:01:00.632Z,0
2023-02-05T04:04:35.306Z,0
2023-02-05T04:05:15.850Z,0
2023-02-05T04:05:56.431Z,0
2023-02-05T04:06:37.007Z,0
2023-02-05T04:09:06.528Z,0
2023-02-05T04:09:47.059Z,0
2023-02-05T04:10:27.660Z,0
2023-02-05T04:11:08.832Z,0
2023-02-05T04:14:03.305Z,0
2023-02-05T04:14:43.864Z,0
2023-02-05T04:15:25.020Z,0
2023-02-05T04:16:06.222Z,0
2023-02-05T04:18:19.248Z,0
2023-02-05T04:18:59.798Z,0
2023-02-05T04:19:40.303Z,0
2023-02-05T04:20:20.865Z,0
2023-02-05T04:23:44.295Z,0
2023-02-05T04:24:24.839Z,0
2023-02-05T04:25:05.395Z,0
2023-02-05T04:25:45.918Z,0
2023-02-05T04:26:26.470Z,0
2023-02-05T04:27:06.986Z,0
2023-02-05T04:27:47.543Z,0
2023-02-05T04:34:33.964Z,0
2023-02-05T04:35:14.555Z,0
2023-02-05T04:35:55.122Z,0
2023-02-05T04:36:35.659Z,0
2023-02-05T04:37:16.171Z,0
2023-02-05T04:37:56.819Z,0
2023-02-05T04:38:37.330Z,0
2023-02-05T04:39:17.929Z,0
2023-02-05T04:39:58.476Z,0
2023-02-05T04:46:44.197Z,0
2023-02-05T04:47:24.762Z,0
2023-02-05T04:48:05.346Z,0
2023-02-05T04:48:45.866Z,0
2023-02-05T04:49:26.499Z,0
2023-02-05T04:50:07.044Z,0
2023-02-05T04:50:47.608Z,0
2023-02-05T04:51:28.756Z,0
2023-02-05T04:57:33.878Z,0
2023-02-05T04:58:14.475Z,0
2023-02-05T04:58:55.023Z,0
2023-02-05T04:59:35.706Z,0
2023-02-05T05:00:16.252Z,0
2023-02-05T05:00:56.822Z,0
2023-02-05T05:01:37.389Z,0
2023-02-05T05:02:17.905Z,0
2023-02-05T05:02:58.492Z,0
2023-02-05T05:10:38.513Z,0
2023-02-05T05:11:25.028Z,0
2023-02-05T05:12:08.009Z,0
2023-02-05T05:12:48.567Z,0
2023-02-05T05:13:32.490Z,0
2023-02-05T05:14:15.703Z,0
2023-02-05T05:16:46.344Z,0
2023-02-05T05:17:26.856Z,0
2023-02-05T05:18:07.346Z,0
2023-02-05T05:18:47.872Z,0
2023-02-05T05:22:04.790Z,0
2023-02-05T05:22:45.311Z,0
2023-02-05T05:23:25.891Z,0
2023-02-05T05:24:06.490Z,0
2023-02-05T05:28:09.842Z,0
2023-02-05T05:28:50.312Z,0
2023-02-05T05:29:30.909Z,0
2023-02-05T05:30:11.427Z,0
2023-02-05T05:30:51.982Z,0
2023-02-05T05:31:33.445Z,0
2023-02-05T05:32:14.028Z,0
2023-02-05T05:36:28.303Z,0
2023-02-05T05:37:08.890Z,0
2023-02-05T05:37:49.376Z,0
2023-02-05T05:38:29.944Z,0
2023-02-05T05:42:33.402Z,0
2023-02-05T05:43:13.861Z,0
2023-02-05T05:43:54.417Z,0
2023-02-05T05:44:35.050Z,0
2023-02-05T05:45:15.518Z,0
2023-02-05T05:45:56.111Z,0
2023-02-05T05:46:36.618Z,0
2023-02-05T05:49:15.125Z,0
2023-02-05T05:49:55.679Z,0
2023-02-05T05:50:36.338Z,0
2023-02-05T05:51:17.051Z,0
2023-02-05T05:54:39.868Z,0
2023-02-05T05:55:21.096Z,0
2023-02-05T05:56:01.620Z,0
2023-02-05T05:56:42.123Z,0
2023-02-05T05:57:22.701Z,0
2023-02-05T05:58:03.238Z,0
2023-02-05T05:58:43.862Z,0
2023-02-05T05:59:24.409Z,0
2023-02-05T06:07:42.374Z,0
2023-02-05T06:08:22.940Z,0
2023-02-05T06:09:03.580Z,0
2023-02-05T06:09:44.087Z,0
2023-02-05T06:13:47.379Z,0
2023-02-05T06:14:27.912Z,0
2023-02-05T06:15:08.435Z,0
2023-02-05T06:15:48.957Z,0
2023-02-05T06:16:29.451Z,0
2023-02-05T06:17:10.050Z,0
2023-02-05T06:17:50.548Z,0
2023-02-05T06:18:31.123Z,0
2023-02-05T06:19:11.668Z,0
2023-02-05T06:25:57.193Z,0
2023-02-05T06:28:36.040Z,0
2023-02-05T06:29:16.657Z,0
2023-02-05T06:29:57.309Z,0
2023-02-05T06:30:38.751Z,0
2023-02-05T06:32:51.776Z,0
2023-02-05T06:33:32.317Z,0
2023-02-05T06:34:12.841Z,0
2023-02-05T06:34:53.372Z,0
2023-02-05T06:40:51.918Z,0
2023-02-05T06:41:32.473Z,0
2023-02-05T06:42:13.016Z,0
2023-02-05T06:42:53.533Z,0
2023-02-05T06:46:50.710Z,0
2023-02-05T06:47:31.238Z,0
2023-02-05T06:48:11.773Z,0
2023-02-05T06:48:52.838Z,0
2023-02-05T06:51:10.058Z,0
2023-02-05T06:51:50.617Z,0
2023-02-05T06:52:39.487Z,0
2023-02-05T06:53:23.469Z,0
2023-02-05T06:57:23.041Z,0
2023-02-05T06:58:04.199Z,0
2023-02-05T06:58:45.616Z,0
2023-02-05T06:59:26.163Z,0
2023-02-05T07:01:59.659Z,0
2023-02-05T07:02:40.110Z,0
2023-02-05T07:03:20.673Z,0
2023-02-05T07:04:01.206Z,0
2023-02-05T07:06:39.906Z,0
2023-02-05T07:07:20.446Z,0
2023-02-05T07:08:00.963Z,0
2023-02-05T07:08:42.209Z,0
2023-02-05T07:11:00.672Z,0
2023-02-05T07:11:41.182Z,0
2023-02-05T07:12:21.768Z,0
2023-02-05T07:13:03.579Z,0
2023-02-05T07:16:25.275Z,5
2023-02-05T07:17:05.895Z,5
2023-02-05T07:17:46.421Z,5
2023-02-05T07:18:26.990Z,5
2023-02-05T07:19:07.545Z,5
2023-02-05T07:19:48.195Z,5
2023-02-05T07:20:28.747Z,5
2023-02-05T07:21:09.402Z,5
2023-02-05T07:21:49.897Z,5
2023-02-05T07:24:58.556Z,5
2023-02-05T07:25:39.063Z,5
2023-02-05T07:26:19.620Z,5
2023-02-05T07:27:01.172Z,5
2023-02-05T07:29:43.385Z,5
2023-02-05T07:30:23.897Z,5
2023-02-05T07:31:04.502Z,10
2023-02-05T07:31:45.061Z,10
2023-02-05T07:32:25.510Z,10
2023-02-05T07:33:06.647Z,10
2023-02-05T07:33:47.196Z,10
2023-02-05T07:34:27.715Z,15
2023-02-05T07:38:33.328Z,10
2023-02-05T07:39:13.915Z,10
2023-02-05T07:39:54.429Z,10
2023-02-05T07:42:22.952Z,10
2023-02-05T07:43:03.482Z,15
2023-02-05T07:43:44.106Z,15
2023-02-05T07:44:24.630Z,15
2023-02-05T07:48:19.239Z,20
2023-02-05T07:48:59.809Z,20
2023-02-05T07:49:40.333Z,20
2023-02-05T07:50:20.950Z,20
2023-02-05T07:54:24.271Z,10
2023-02-05T07:56:58.391Z,10
2023-02-05T07:57:38.988Z,10
2023-02-05T07:58:20.144Z,10
2023-02-05T08:00:59.335Z,5
2023-02-05T08:01:43.174Z,5
2023-02-05T08:02:26.181Z,5
2023-02-05T08:03:09.323Z,10
2023-02-05T08:05:39.442Z,10
2023-02-05T08:06:19.830Z,10
2023-02-05T08:07:00.391Z,10
2023-02-05T08:07:40.923Z,10
2023-02-05T08:11:44.124Z,10
2023-02-05T08:12:24.674Z,15
2023-02-05T08:13:05.246Z,15
2023-02-05T08:13:45.821Z,20
2023-02-05T08:14:26.333Z,25
2023-02-05T08:15:06.905Z,25
2023-02-05T08:15:47.435Z,30
2023-02-05T08:16:28.200Z,30
2023-02-05T08:17:08.677Z,30
2023-02-05T08:20:08.436Z,30
2023-02-05T08:20:53.831Z,30
2023-02-05T08:21:37.294Z,30
2023-02-05T08:22:19.686Z,30
2023-02-05T08:24:47.932Z,35
2023-02-05T08:25:28.620Z,35
2023-02-05T08:26:09.158Z,35
2023-02-05T08:26:49.783Z,35
2023-02-05T08:29:43.069Z,50
2023-02-05T08:30:23.682Z,55
2023-02-05T08:31:04.167Z,55
2023-02-05T08:31:44.696Z,55
2023-02-05T08:34:38.818Z,60
2023-02-05T08:35:19.361Z,60
2023-02-05T08:35:59.930Z,60
2023-02-05T08:36:40.417Z,55
2023-02-05T08:40:43.768Z,50
2023-02-05T08:41:24.326Z,50
2023-02-05T08:42:04.876Z,50
2023-02-05T08:42:45.422Z,45
2023-02-05T08:43:25.961Z,45
2023-02-05T08:44:06.497Z,45
2023-02-05T08:44:47.060Z,45
2023-02-05T08:45:27.620Z,40
2023-02-05T08:46:08.148Z,40
2023-02-05T08:50:23.976Z,30
2023-02-05T08:51:04.499Z,30
2023-02-05T08:51:45.018Z,35
2023-02-05T08:52:25.558Z,40
2023-02-05T08:55:49.036Z,35
2023-02-05T08:56:30.144Z,40
2023-02-05T08:57:10.662Z,45
2023-02-05T08:57:51.267Z,50
2023-02-05T08:58:31.798Z,55
2023-02-05T08:59:12.329Z,55
2023-02-05T08:59:52.855Z,55
2023-02-05T09:00:33.465Z,55
2023-02-05T09:04:51.413Z,65
2023-02-05T09:05:30.069Z,65
2023-02-05T09:06:10.657Z,65
2023-02-05T09:06:51.174Z,65
2023-02-05T09:09:33.265Z,65
2023-02-05T09:10:13.808Z,70
2023-02-05T09:10:54.332Z,70
2023-02-05T09:11:34.857Z,75
2023-02-05T09:12:15.367Z,75
2023-02-05T09:12:55.972Z,75
2023-02-05T09:13:36.470Z,75
2023-02-05T09:14:17.008Z,75
2023-02-05T09:14:57.513Z,75
2023-02-05T09:15:38.061Z,75
2023-02-05T09:21:03.745Z,75
2023-02-05T09:21:44.277Z,75
2023-02-05T09:22:24.764Z,75
2023-02-05T09:23:05.321Z,80
2023-02-05T09:23:45.848Z,85
2023-02-05T09:24:26.349Z,85
2023-02-05T09:25:07.113Z,90
2023-02-05T09:25:47.535Z,85
2023-02-05T09:28:25.739Z,75
2023-02-05T09:29:06.928Z,75
2023-02-05T09:29:47.509Z,80
2023-02-05T09:30:28.087Z,80
2023-02-05T09:33:50.754Z,85
2023-02-05T09:34:31.303Z,85
2023-02-05T09:35:11.857Z,80
2023-02-05T09:35:52.389Z,80
2023-02-05T09:36:33.561Z,75
2023-02-05T09:37:15.062Z,75
2023-02-05T09:41:29.460Z,70
2023-02-05T09:42:10.029Z,70
2023-02-05T09:42:50.533Z,75
2023-02-05T09:43:31.062Z,75
2023-02-05T09:47:34.308Z,75
2023-02-05T09:48:14.867Z,75
2023-02-05T09:48:56.311Z,75
2023-02-05T09:49:36.882Z,75
2023-02-05T09:50:17.423Z,75
2023-02-05T09:50:58.240Z,75
2023-02-05T09:51:38.539Z,75
2023-02-05T09:55:53.355Z,70
2023-02-05T09:56:36.017Z,70
2023-02-05T09:57:14.461Z,65
2023-02-05T09:57:55.007Z,65
2023-02-05T10:01:28.904Z,70
2023-02-05T10:02:09.374Z,70
2023-02-05T10:02:49.996Z,65
2023-02-05T10:03:30.611Z,55
2023-02-05T10:06:54.048Z,85
2023-02-05T10:09:24.183Z,115
2023-02-05T10:10:05.698Z,120
2023-02-05T10:10:46.255Z,120
2023-02-05T10:11:27.623Z,115
2023-02-05T10:14:00.664Z,75
2023-02-05T10:14:41.200Z,70
2023-02-05T10:15:21.751Z,75
2023-02-05T10:16:02.309Z,80
2023-02-05T10:19:36.828Z,80
2023-02-05T10:20:17.465Z,85
2023-02-05T10:20:58.017Z,80
2023-02-05T10:21:38.570Z,75
2023-02-05T10:25:43.568Z,75
2023-02-05T10:26:22.488Z,80
2023-02-05T10:27:03.025Z,85
2023-02-05T10:27:43.663Z,85
2023-02-05T10:28:24.128Z,90
2023-02-05T10:29:04.690Z,95
2023-02-05T10:29:45.200Z,95
2023-02-05T10:30:25.766Z,90
2023-02-05T10:31:06.478Z,80
2023-02-05T10:36:42.205Z,40
2023-02-05T10:37:22.793Z,40
2023-02-05T10:38:04.636Z,40
2023-02-05T10:38:43.989Z,45
2023-02-05T10:42:47.185Z,85
2023-02-05T10:43:27.684Z,85
2023-02-05T10:44:08.240Z,80
2023-02-05T10:44:48.834Z,75
2023-02-05T10:45:29.380Z,75
2023-02-05T10:46:09.900Z,75
2023-02-05T10:46:50.475Z,80
2023-02-05T10:47:30.989Z,80
2023-02-05T10:48:12.293Z,85
2023-02-05T10:52:56.972Z,80
2023-02-05T10:53:37.464Z,75
2023-02-05T10:54:18.013Z,70
2023-02-05T10:54:58.511Z,70
2023-02-05T10:55:39.078Z,65
2023-02-05T10:56:19.572Z,60
2023-02-05T10:57:00.139Z,60
2023-02-05T10:57:41.492Z,55
2023-02-05T11:03:47.066Z,75
2023-02-05T11:04:27.626Z,85
2023-02-05T11:05:08.169Z,85
2023-02-05T11:05:48.720Z,85
2023-02-05T11:06:29.264Z,90
2023-02-05T11:09:07.738Z,105
2023-02-05T11:09:48.283Z,105
2023-02-05T11:10:28.828Z,110
2023-02-05T11:11:10.280Z,130
2023-02-05T11:13:39.128Z,130
2023-02-05T11:14:19.729Z,125
2023-02-05T11:15:00.894Z,115
2023-02-05T11:17:40.192Z,95
2023-02-05T11:18:20.723Z,105
2023-02-05T11:19:01.209Z,115
2023-02-05T11:19:42.374Z,115
2023-02-05T11:23:05.087Z,120
2023-02-05T11:23:45.591Z,105
2023-02-05T11:24:26.111Z,90
2023-02-05T11:25:06.765Z,85
2023-02-05T11:25:47.260Z,80
2023-02-05T11:26:27.820Z,75
2023-02-05T11:27:08.566Z,80
2023-02-05T11:27:49.779Z,85
2023-02-05T11:33:55.230Z,95
2023-02-05T11:34:35.735Z,95
2023-02-05T11:35:16.246Z,95
2023-02-05T11:35:56.817Z,95
2023-02-05T11:36:37.335Z,95
2023-02-05T11:37:17.856Z,95
2023-02-05T11:37:58.450Z,90
2023-02-05T11:38:39.983Z,90
2023-02-05T11:41:17.514Z,70
2023-02-05T11:41:58.082Z,65
2023-02-05T11:42:38.602Z,60
2023-02-05T11:43:19.104Z,65
2023-02-05T11:48:55.789Z,80
2023-02-05T11:49:39.038Z,80
2023-02-05T11:50:21.544Z,75
2023-02-05T11:53:04.729Z,75
2023-02-05T11:53:45.237Z,75
2023-02-05T11:54:25.784Z,90
2023-02-05T11:55:06.291Z,100
2023-02-05T11:59:09.397Z,65
2023-02-05T11:59:49.939Z,60
2023-02-05T12:00:30.491Z,60
2023-02-05T12:01:11.013Z,65
2023-02-05T12:03:24.278Z,70
2023-02-05T12:04:04.839Z,75
2023-02-05T12:04:45.388Z,80
2023-02-05T12:05:25.911Z,85
2023-02-05T12:07:38.957Z,90
2023-02-05T12:08:19.511Z,90
2023-02-05T12:09:00.638Z,90
2023-02-05T12:09:41.173Z,90
2023-02-05T12:11:43.544Z,90
2023-02-05T12:12:24.054Z,95
2023-02-05T12:13:05.464Z,90
2023-02-05T12:13:45.984Z,90
2023-02-05T12:14:26.512Z,100
2023-02-05T12:15:07.051Z,100
2023-02-05T12:15:47.589Z,110
2023-02-05T12:16:28.202Z,100
2023-02-05T12:20:04.224Z,60
2023-02-05T12:20:47.476Z,65
2023-02-05T12:21:28.513Z,65
2023-02-05T12:22:11.922Z,80
2023-02-05T12:22:54.302Z,90
2023-02-05T12:26:30.545Z,85
2023-02-05T12:27:11.814Z,85
2023-02-05T12:27:52.388Z,85
2023-02-05T12:28:32.860Z,80
2023-02-05T12:31:55.694Z,75
2023-02-05T12:32:36.074Z,75
2023-02-05T12:33:16.591Z,75
2023-02-05T12:33:57.114Z,70
2023-02-05T12:34:37.632Z,75
2023-02-05T12:35:18.160Z,75
2023-02-05T12:35:58.674Z,80
2023-02-05T12:36:40.091Z,75
2023-02-05T12:43:25.414Z,85
2023-02-05T12:46:03.846Z,55
2023-02-05T12:46:44.305Z,55
2023-02-05T12:47:24.847Z,60
2023-02-05T12:48:05.359Z,60
2023-02-05T12:52:08.613Z,70
2023-02-05T12:54:41.773Z,90
2023-02-05T12:55:22.783Z,90
2023-02-05T12:56:02.794Z,90
2023-02-05T12:56:43.332Z,85
2023-02-05T13:00:59.772Z,85
2023-02-05T13:01:40.204Z,90
2023-02-05T13:02:21.673Z,80
2023-02-05T13:03:02.885Z,85
2023-02-05T13:05:36.504Z,75
2023-02-05T13:06:16.913Z,65
2023-02-05T13:06:58.873Z,60
2023-02-05T13:07:40.440Z,60
2023-02-05T13:08:21.602Z,60
2023-02-05T13:09:02.253Z,60
2023-02-05T13:09:42.809Z,60
2023-02-05T13:10:23.364Z,60
2023-02-05T13:11:03.941Z,55
2023-02-05T13:11:44.468Z,55
2023-02-05T13:12:25.112Z,50
2023-02-05T13:13:05.625Z,50
2023-02-05T13:17:13.166Z,60
2023-02-05T13:17:53.618Z,60
2023-02-05T13:18:34.203Z,65
2023-02-05T13:19:14.819Z,70
2023-02-05T13:25:38.085Z,65
2023-02-05T13:26:14.663Z,70
2023-02-05T13:26:56.652Z,75
2023-02-05T13:27:37.252Z,80
2023-02-05T13:28:58.411Z,85
2023-02-05T13:29:39.651Z,85
2023-02-05T13:30:21.189Z,85
2023-02-05T13:31:02.705Z,80
2023-02-05T13:35:49.568Z,75
2023-02-05T13:36:28.880Z,75
2023-02-05T13:37:09.457Z,75
2023-02-05T13:37:50.009Z,75
2023-02-05T13:40:28.938Z,65
2023-02-05T13:41:09.457Z,65
2023-02-05T13:41:50.091Z,65
2023-02-05T13:42:30.589Z,65
2023-02-05T13:46:33.903Z,55
2023-02-05T13:47:14.454Z,55
2023-02-05T13:47:55.005Z,50
2023-02-05T13:48:35.554Z,50
2023-02-05T13:49:16.090Z,50
2023-02-05T13:56:09.767Z,70
2023-02-05T13:56:50.303Z,70
2023-02-05T13:57:30.871Z,75
2023-02-05T13:58:11.496Z,75
2023-02-05T14:01:35.376Z,75
2023-02-05T14:04:16.415Z,60
2023-02-05T14:04:57.839Z,55
2023-02-05T14:05:38.369Z,55
2023-02-05T14:06:18.867Z,55
2023-02-05T14:08:21.056Z,60
2023-02-05T14:09:04.350Z,60
2023-02-05T14:09:44.903Z,50
2023-02-05T14:16:02.632Z,40
2023-02-05T14:16:49.876Z,40
2023-02-05T14:17:28.398Z,40
2023-02-05T14:18:09.870Z,45
2023-02-05T14:20:38.956Z,50
2023-02-05T14:21:21.069Z,55
2023-02-05T14:22:01.580Z,60
2023-02-05T14:22:42.145Z,60
2023-02-05T14:25:00.849Z,65
2023-02-05T14:25:41.407Z,70
2023-02-05T14:26:22.880Z,65
2023-02-05T14:29:02.252Z,65
2023-02-05T14:29:43.640Z,65
2023-02-05T14:30:24.251Z,60
2023-02-05T14:31:04.816Z,55
2023-02-05T14:33:22.998Z,50
2023-02-05T14:34:06.739Z,40
2023-02-05T14:34:44.024Z,40
2023-02-05T14:35:24.573Z,45
2023-02-05T14:40:22.507Z,40
2023-02-05T14:41:03.056Z,45
2023-02-05T14:41:43.601Z,40
2023-02-05T14:42:24.106Z,40
2023-02-05T14:46:27.397Z,45
2023-02-05T14:47:08.623Z,45
2023-02-05T14:47:49.140Z,45
2023-02-05T14:48:30.617Z,45
2023-02-05T14:49:11.201Z,40
2023-02-05T14:49:51.711Z,35
2023-02-05T14:57:04.156Z,25
2023-02-05T14:57:44.670Z,20
2023-02-05T14:58:25.204Z,20
2023-02-05T14:59:05.771Z,20
2023-02-05T15:02:29.236Z,15
2023-02-05T15:03:09.795Z,15
2023-02-05T15:03:50.389Z,15
2023-02-05T15:04:30.872Z,15
2023-02-05T15:05:11.419Z,15
2023-02-05T15:05:51.911Z,10
2023-02-05T15:06:32.429Z,10
2023-02-05T15:07:12.996Z,10
2023-02-05T15:07:53.516Z,10
2023-02-05T15:12:31.604Z,10
2023-02-05T15:13:12.078Z,10
2023-02-05T15:13:52.624Z,10
2023-02-05T15:14:33.289Z,10
2023-02-05T15:18:36.474Z,20
2023-02-05T15:19:17.045Z,25
2023-02-05T15:19:57.632Z,30
2023-02-05T15:20:38.213Z,35
2023-02-05T15:21:18.715Z,40
2023-02-05T15:23:57.882Z,45
2023-02-05T15:24:38.439Z,50
2023-02-05T15:25:18.946Z,50
2023-02-05T15:25:59.449Z,55
2023-02-05T15:29:22.755Z,45
2023-02-05T15:30:03.401Z,45
2023-02-05T15:30:43.846Z,50
2023-02-05T15:31:24.349Z,55
2023-02-05T15:32:04.866Z,55
2023-02-05T15:32:45.400Z,55
2023-02-05T15:33:25.949Z,55
2023-02-05T15:34:06.494Z,55
2023-02-05T15:34:47.069Z,55
2023-02-05T15:40:38.009Z,30
2023-02-05T15:41:18.545Z,30
2023-02-05T15:41:59.092Z,25
2023-02-05T15:42:39.607Z,25
2023-02-05T15:46:42.790Z,20
2023-02-05T15:47:23.262Z,20
2023-02-05T15:48:03.795Z,20
2023-02-05T15:48:44.303Z,20
2023-02-05T15:49:24.902Z,20
2023-02-05T15:50:07.315Z,20
2023-02-05T15:53:00.600Z,25
2023-02-05T15:53:41.147Z,25
2023-02-05T15:54:21.711Z,20
2023-02-05T15:55:02.296Z,20
2023-02-05T15:57:40.728Z,15
2023-02-05T15:58:21.823Z,10
2023-02-05T15:59:02.345Z,10
2023-02-05T15:59:42.837Z,10
2023-02-05T16:02:37.300Z,5
2023-02-05T16:03:17.778Z,5
2023-02-05T16:03:58.337Z,5
2023-02-05T16:04:39.752Z,5
2023-02-05T16:06:42.002Z,5
2023-02-05T16:07:22.517Z,5
2023-02-05T16:08:03.102Z,5
2023-02-05T16:08:43.632Z,5
2023-02-05T16:09:24.156Z,0
2023-02-05T16:10:04.744Z,0
2023-02-05T16:10:45.307Z,0
2023-02-05T16:11:25.805Z,0
2023-02-05T16:12:06.360Z,0
2023-02-05T16:12:46.876Z,0
2023-02-05T16:15:40.439Z,0
2023-02-05T16:16:22.622Z,0
2023-02-05T16:17:01.516Z,0
2023-02-05T16:17:42.029Z,0
2023-02-05T16:21:59.019Z,0
2023-02-05T16:22:37.255Z,0
2023-02-05T16:23:17.767Z,0
2023-02-05T16:23:58.300Z,0
2023-02-05T16:26:52.536Z,0
2023-02-05T16:27:33.031Z,0
2023-02-05T16:28:13.576Z,0
2023-02-05T16:28:54.109Z,0
2023-02-05T16:32:16.849Z,0
2023-02-05T16:32:57.404Z,0
2023-02-05T16:33:37.989Z,0
2023-02-05T16:34:18.520Z,0
2023-02-05T16:34:59.050Z,0
2023-02-05T16:35:39.622Z,0
2023-02-05T16:36:20.119Z,0
2023-02-05T16:42:37.321Z,0
2023-02-05T16:43:17.861Z,0
2023-02-05T16:43:58.392Z,0
2023-02-05T16:44:38.968Z,0
2023-02-05T16:47:21.968Z,0
2023-02-05T16:48:02.536Z,0
2023-02-05T16:48:43.892Z,0
2023-02-05T16:49:24.444Z,0
2023-02-05T16:50:05.006Z,0
2023-02-05T16:50:45.537Z,0
2023-02-05T16:51:26.092Z,0
2023-02-05T16:52:06.817Z,0
2023-02-05T16:58:23.005Z,0
2023-02-05T16:59:03.505Z,0
2023-02-05T16:59:44.052Z,0
2023-02-05T17:00:24.581Z,0
2023-02-05T17:04:27.735Z,0
2023-02-05T17:05:08.307Z,0
2023-02-05T17:05:48.863Z,0
2023-02-05T17:06:29.383Z,0
2023-02-05T17:07:09.990Z,0
2023-02-05T17:07:50.474Z,0
2023-02-05T17:08:31.026Z,0
2023-02-05T17:09:11.595Z,0
2023-02-05T17:09:52.135Z,0
2023-02-05T17:17:30.314Z,0
2023-02-05T17:18:10.842Z,0
2023-02-05T17:18:51.381Z,0
2023-02-05T17:19:32.054Z,0
2023-02-05T17:22:25.634Z,0
2023-02-05T17:23:06.169Z,0
2023-02-05T17:23:46.698Z,0
2023-02-05T17:24:27.337Z,0
2023-02-05T17:27:50.864Z,0
2023-02-05T17:28:31.327Z,0
2023-02-05T17:29:12.802Z,0
2023-02-05T17:29:53.311Z,0
2023-02-05T17:30:34.242Z,0
2023-02-05T17:31:14.389Z,0
2023-02-05T17:31:54.923Z,0
2023-02-05T17:35:28.990Z,0
2023-02-05T17:36:09.512Z,0
2023-02-05T17:36:50.083Z,0
2023-02-05T17:37:30.653Z,0
2023-02-05T17:40:54.044Z,0
2023-02-05T17:41:34.581Z,0
2023-02-05T17:42:15.091Z,0
2023-02-05T17:42:55.642Z,0
2023-02-05T17:45:34.739Z,0
2023-02-05T17:46:15.843Z,0
2023-02-05T17:46:57.194Z,0
2023-02-05T17:47:37.704Z,0
2023-02-05T17:50:07.258Z,0
2023-02-05T17:50:47.812Z,0
2023-02-05T17:51:28.466Z,0
2023-02-05T17:52:09.619Z,0
2023-02-05T17:54:22.590Z,0
2023-02-05T17:55:03.044Z,0
2023-02-05T17:55:43.632Z,0
2023-02-05T17:56:24.157Z,0
2023-02-05T18:00:27.556Z,0
2023-02-05T18:01:08.129Z,0
2023-02-05T18:01:48.687Z,0
2023-02-05T18:02:29.241Z,0
2023-02-05T18:03:09.792Z,0
2023-02-05T18:03:50.356Z,0
2023-02-05T18:04:30.909Z,0
2023-02-05T18:05:11.515Z,0
2023-02-05T18:09:57.354Z,0
2023-02-05T18:10:37.960Z,0
2023-02-05T18:11:18.293Z,0
2023-02-05T18:11:58.888Z,0
2023-02-05T18:12:39.461Z,0
2023-02-05T18:13:19.980Z,0
2023-02-05T18:14:00.522Z,0
2023-02-05T18:14:41.104Z,0
2023-02-05T18:15:21.558Z,0
2023-02-05T18:16:02.107Z,0
2023-02-05T18:22:48.074Z,0
2023-02-05T18:23:29.326Z,0
2023-02-05T18:24:09.136Z,0
2023-02-05T18:24:49.652Z,0
2023-02-05T18:25:30.247Z,0
2023-02-05T18:26:11.553Z,0
2023-02-05T18:26:52.151Z,0
2023-02-05T18:32:17.416Z,0
2023-02-05T18:32:57.992Z,0
2023-02-05T18:33:38.531Z,0
2023-02-05T18:34:20.029Z,0
2023-02-05T18:35:00.585Z,0
2023-02-05T18:35:41.102Z,0
2023-02-05T18:36:21.607Z,0
2023-02-05T18:37:02.136Z,0
2023-02-05T18:43:47.508Z,0
2023-02-05T18:44:28.089Z,0